createdAt,value
2022-10-07T00:00:16.957Z,17.48
2022-10-07T00:03:21.504Z,17.70
2022-10-07T00:06:25.277Z,20.00
2022-10-07T00:09:29.142Z,20.83
2022-10-07T00:12:34.450Z,20.27
2022-10-07T00:15:38.541Z,20.55
2022-10-07T00:18:42.993Z,19.00
2022-10-07T00:21:47.792Z,20.60
2022-10-07T00:24:51.947Z,21.90
2022-10-07T00:27:55.071Z,19.90
2022-10-07T00:31:05.035Z,20.17
2022-10-07T00:34:09.006Z,21.60
2022-10-07T00:37:12.498Z,19.15
2022-10-07T00:40:15.797Z,21.05
2022-10-07T00:43:24.217Z,19.20
2022-10-07T00:46:37.483Z,19.83
2022-10-07T00:49:53.263Z,23.57
2022-10-07T00:53:01.143Z,22.17
2022-10-07T00:56:06.925Z,21.92
2022-10-07T00:59:11.627Z,23.27
2022-10-07T01:02:16.163Z,22.55
2022-10-07T01:05:32.888Z,22.80
2022-10-07T01:08:36.226Z,21.17
2022-10-07T01:12:05.003Z,23.63
2022-10-07T01:15:16.260Z,23.83
2022-10-07T01:18:23.443Z,24.38
2022-10-07T01:22:07.790Z,24.63
2022-10-07T01:25:25.532Z,24.63
2022-10-07T01:28:34.984Z,23.92
2022-10-07T01:31:48.795Z,24.63
2022-10-07T01:34:55.620Z,23.27
2022-10-07T01:38:02.176Z,25.10
2022-10-07T01:41:19.446Z,20.97
2022-10-07T01:44:23.405Z,21.70
2022-10-07T01:47:29.057Z,22.65
2022-10-07T01:50:33.756Z,19.67
2022-10-07T01:53:41.076Z,18.90
2022-10-07T01:56:54.435Z,19.50
2022-10-07T02:00:06.559Z,14.55
2022-10-07T02:04:10.610Z,14.48
2022-10-07T02:07:36.013Z,11.18
2022-10-07T02:10:52.584Z,15.33
2022-10-07T02:14:27.624Z,12.47
2022-10-07T02:17:36.169Z,14.77
2022-10-07T02:20:42.861Z,16.38
2022-10-07T02:23:47.650Z,15.75
2022-10-07T02:26:53.304Z,14.00
2022-10-07T02:30:03.855Z,13.63
2022-10-07T02:33:10.854Z,13.77
2022-10-07T02:36:37.718Z,12.40
2022-10-07T02:39:44.530Z,5.15
2022-10-07T02:42:57.293Z,10.40
2022-10-07T02:46:13.383Z,10.00
2022-10-07T02:49:18.852Z,8.02
2022-10-07T02:52:24.390Z,11.43
2022-10-07T02:55:29.761Z,9.77
2022-10-07T02:58:34.973Z,8.83
2022-10-07T03:01:47.130Z,7.70
2022-10-07T03:04:51.293Z,8.43
2022-10-07T03:08:09.198Z,8.20
2022-10-07T03:11:14.207Z,7.72
2022-10-07T03:14:17.950Z,8.47
2022-10-07T03:17:22.013Z,7.70
2022-10-07T03:20:26.300Z,7.63
2022-10-07T03:23:33.578Z,7.80
2022-10-07T03:26:37.187Z,8.07
2022-10-07T03:29:41.385Z,8.23
2022-10-07T03:32:45.165Z,7.80
2022-10-07T03:35:48.886Z,6.72
2022-10-07T03:38:52.425Z,6.07
2022-10-07T03:41:57.575Z,6.03
2022-10-07T03:45:01.456Z,6.27
2022-10-07T03:48:05.772Z,6.60
2022-10-07T03:51:09.526Z,6.93
2022-10-07T03:54:14.031Z,7.20
2022-10-07T03:57:35.918Z,7.93
2022-10-07T04:00:41.205Z,7.00
2022-10-07T04:03:45.568Z,6.63
2022-10-07T04:06:49.938Z,8.32
2022-10-07T04:09:54.176Z,6.60
2022-10-07T04:12:57.706Z,6.70
2022-10-07T04:16:08.437Z,7.17
2022-10-07T04:19:14.304Z,8.07
2022-10-07T04:22:18.879Z,7.95
2022-10-07T04:25:35.490Z,8.48
2022-10-07T04:28:44.884Z,6.82
2022-10-07T04:31:53.773Z,7.10
2022-10-07T04:34:57.420Z,7.40
2022-10-07T04:38:01.905Z,7.43
2022-10-07T04:41:07.998Z,6.75
2022-10-07T04:44:14.433Z,7.00
2022-10-07T04:47:38.667Z,5.90
2022-10-07T04:50:42.430Z,5.67
2022-10-07T04:53:57.010Z,6.05
2022-10-07T04:57:16.638Z,5.80
2022-10-07T05:00:21.150Z,4.38
2022-10-07T05:03:27.906Z,4.60
2022-10-07T05:06:31.312Z,3.30
2022-10-07T05:09:35.055Z,3.90
2022-10-07T05:12:38.593Z,3.83
2022-10-07T05:15:57.139Z,5.28
2022-10-07T05:19:01.163Z,5.37
2022-10-07T05:22:04.390Z,4.20
2022-10-07T05:25:07.905Z,4.95
2022-10-07T05:28:16.529Z,3.17
2022-10-07T05:31:20.546Z,3.10
2022-10-07T05:34:28.534Z,3.43
2022-10-07T05:37:33.238Z,4.07
2022-10-07T05:40:36.960Z,2.17
2022-10-07T05:43:43.619Z,1.40
2022-10-07T05:46:50.848Z,2.10
2022-10-07T05:49:59.235Z,2.17
2022-10-07T05:53:03.755Z,1.77
2022-10-07T05:56:09.232Z,1.95
2022-10-07T05:59:12.502Z,1.85
2022-10-07T06:02:20.519Z,2.17
2022-10-07T06:05:25.640Z,3.50
2022-10-07T06:08:28.738Z,2.37
2022-10-07T06:11:52.898Z,2.00
2022-10-07T06:14:56.284Z,2.00
2022-10-07T06:17:59.355Z,2.13
2022-10-07T06:21:05.343Z,3.70
2022-10-07T06:24:08.950Z,2.57
2022-10-07T06:27:12.334Z,1.50
2022-10-07T06:30:16.666Z,1.45
2022-10-07T06:33:20.439Z,1.50
2022-10-07T06:36:24.842Z,1.40
2022-10-07T06:39:31.052Z,1.80
2022-10-07T06:42:34.460Z,1.35
2022-10-07T06:46:03.186Z,1.08
2022-10-07T06:49:07.289Z,2.00
2022-10-07T06:52:11.629Z,1.63
2022-10-07T06:55:15.444Z,1.53
2022-10-07T06:58:19.279Z,1.73
2022-10-07T07:01:23.458Z,1.45
2022-10-07T07:04:27.192Z,1.33
2022-10-07T07:07:31.906Z,1.50
2022-10-07T07:10:40.403Z,1.17
2022-10-07T07:13:47.253Z,1.40
2022-10-07T07:16:50.423Z,3.40
2022-10-07T07:19:54.249Z,1.50
2022-10-07T07:22:57.928Z,1.10
2022-10-07T07:26:01.919Z,0.83
2022-10-07T07:29:07.420Z,1.33
2022-10-07T07:32:16.336Z,2.28
2022-10-07T07:35:23.018Z,1.30
2022-10-07T07:38:27.211Z,0.70
2022-10-07T07:41:34.597Z,1.00
2022-10-07T07:44:39.523Z,1.27
2022-10-07T07:47:50.490Z,0.90
2022-10-07T07:50:54.885Z,2.15
2022-10-07T07:54:00.800Z,1.40
2022-10-07T07:57:05.173Z,1.57
2022-10-07T08:00:12.653Z,3.13
2022-10-07T08:03:29.404Z,1.40
2022-10-07T08:06:33.595Z,0.95
2022-10-07T08:09:43.454Z,1.17
2022-10-07T08:12:48.492Z,1.00
2022-10-07T08:15:57.432Z,0.82
2022-10-07T08:19:01.692Z,1.08
2022-10-07T08:22:05.087Z,1.40
2022-10-07T08:25:09.457Z,1.90
2022-10-07T08:28:12.846Z,1.50
2022-10-07T08:31:20.090Z,1.52
2022-10-07T08:34:23.816Z,1.77
2022-10-07T08:37:27.792Z,1.88
2022-10-07T08:40:30.827Z,1.80
2022-10-07T08:43:35.253Z,1.87
2022-10-07T08:46:49.983Z,2.15
2022-10-07T08:50:32.998Z,1.70
2022-10-07T08:53:38.473Z,1.08
2022-10-07T08:56:44.324Z,1.63
2022-10-07T08:59:53.231Z,1.03
2022-10-07T09:03:08.004Z,0.70
2022-10-07T09:06:19.693Z,0.98
2022-10-07T09:09:41.367Z,0.98
2022-10-07T09:13:21.167Z,1.40
2022-10-07T09:16:45.484Z,2.17
2022-10-07T09:19:53.361Z,2.25
2022-10-07T09:22:58.077Z,3.00
2022-10-07T09:26:01.747Z,3.33
2022-10-07T09:29:04.931Z,2.33
2022-10-07T09:32:14.583Z,2.60
2022-10-07T09:35:20.699Z,2.47
2022-10-07T09:38:33.361Z,4.32
2022-10-07T09:41:39.462Z,3.60
2022-10-07T09:44:42.713Z,3.30
2022-10-07T09:47:53.062Z,3.60
2022-10-07T09:51:16.166Z,3.20
2022-10-07T09:54:21.744Z,2.90
2022-10-07T09:57:29.735Z,2.40
2022-10-07T10:00:33.050Z,2.20
2022-10-07T10:03:38.428Z,2.30
2022-10-07T10:06:48.335Z,2.70
2022-10-07T10:09:54.052Z,3.15
2022-10-07T10:13:00.726Z,2.67
2022-10-07T10:16:41.440Z,2.90
2022-10-07T10:19:45.194Z,3.27
2022-10-07T10:22:48.681Z,3.10
2022-10-07T10:26:22.064Z,3.22
2022-10-07T10:29:50.016Z,3.80
2022-10-07T10:33:26.344Z,3.00
2022-10-07T10:36:36.522Z,3.10
2022-10-07T10:40:03.889Z,4.57
2022-10-07T10:43:25.614Z,3.50
2022-10-07T10:46:51.129Z,3.10
2022-10-07T10:50:13.483Z,3.97
2022-10-07T10:53:25.447Z,3.73
2022-10-07T10:56:54.854Z,2.40
2022-10-07T11:00:15.697Z,2.70
2022-10-07T11:03:45.504Z,3.00
2022-10-07T11:06:56.520Z,3.13
2022-10-07T11:10:26.528Z,3.43
2022-10-07T11:14:06.029Z,2.90
2022-10-07T11:17:12.857Z,3.47
2022-10-07T11:20:28.282Z,3.70
2022-10-07T11:23:55.902Z,3.03
2022-10-07T11:27:17.327Z,3.20
2022-10-07T11:30:24.951Z,2.90
2022-10-07T11:33:46.920Z,2.92
2022-10-07T11:37:07.835Z,3.05
2022-10-07T11:40:11.772Z,3.40
2022-10-07T11:43:29.372Z,2.93
2022-10-07T11:46:40.285Z,3.00
2022-10-07T11:50:05.696Z,3.40
2022-10-07T11:53:21.845Z,3.65
2022-10-07T11:56:28.066Z,4.20
2022-10-07T11:59:40.542Z,4.97
2022-10-07T12:02:46.684Z,3.95
2022-10-07T12:05:51.046Z,4.05
2022-10-07T12:08:55.885Z,3.72
2022-10-07T12:11:59.985Z,3.10
2022-10-07T12:15:05.222Z,2.53
2022-10-07T12:18:17.697Z,2.80
2022-10-07T12:21:24.406Z,3.15
2022-10-07T12:24:28.693Z,2.72
2022-10-07T12:27:32.975Z,1.60
2022-10-07T12:30:50.304Z,2.27
2022-10-07T12:34:10.473Z,2.08
2022-10-07T12:37:40.911Z,1.77
2022-10-07T12:40:48.631Z,1.92
2022-10-07T12:44:23.726Z,1.87
2022-10-07T12:47:33.378Z,1.93
2022-10-07T12:50:38.988Z,2.50
2022-10-07T12:53:44.407Z,2.58
2022-10-07T12:56:48.592Z,2.72
2022-10-07T13:00:00.547Z,3.00
2022-10-07T13:03:40.914Z,2.60
2022-10-07T13:07:21.619Z,2.95
2022-10-07T13:10:52.097Z,5.25
2022-10-07T13:14:27.065Z,3.50
2022-10-07T13:17:35.901Z,2.93
2022-10-07T13:21:07.428Z,4.10
2022-10-07T13:24:21.419Z,4.35
2022-10-07T13:27:33.687Z,4.10
2022-10-07T13:30:41.423Z,5.90
2022-10-07T13:33:45.774Z,4.63
2022-10-07T13:36:48.722Z,4.40
2022-10-07T13:39:52.779Z,5.32
2022-10-07T13:42:57.747Z,4.32
2022-10-07T13:46:03.336Z,3.03
2022-10-07T13:49:07.043Z,2.77
2022-10-07T13:52:22.552Z,4.07
2022-10-07T13:55:36.423Z,4.55
2022-10-07T13:58:39.929Z,3.67
2022-10-07T14:01:43.256Z,3.80
2022-10-07T14:04:58.862Z,4.30
2022-10-07T14:08:17.744Z,4.87
2022-10-07T14:11:23.793Z,3.20
2022-10-07T14:14:34.141Z,4.32
2022-10-07T14:17:52.035Z,4.00
2022-10-07T14:21:07.403Z,3.40
2022-10-07T14:24:12.524Z,3.50
2022-10-07T14:27:40.216Z,4.57
2022-10-07T14:31:03.385Z,4.63
2022-10-07T14:34:36.214Z,4.63
2022-10-07T14:37:40.182Z,3.97
2022-10-07T14:40:43.955Z,5.05
2022-10-07T14:43:49.926Z,3.63
2022-10-07T14:47:12.712Z,4.43
2022-10-07T14:50:20.516Z,4.32
2022-10-07T14:53:24.525Z,4.30
2022-10-07T14:56:32.119Z,4.53
2022-10-07T14:59:36.000Z,5.38
2022-10-07T15:02:40.045Z,4.72
2022-10-07T15:05:43.809Z,5.63
2022-10-07T15:08:49.589Z,6.47
2022-10-07T15:11:53.403Z,7.23
2022-10-07T15:14:57.794Z,4.80
2022-10-07T15:18:01.371Z,4.25
2022-10-07T15:21:05.557Z,4.53
2022-10-07T15:24:09.375Z,3.90
2022-10-07T15:27:12.938Z,3.90
2022-10-07T15:30:16.682Z,3.63
2022-10-07T15:33:20.600Z,6.28
2022-10-07T15:36:25.595Z,6.22
2022-10-07T15:39:29.784Z,3.50
2022-10-07T15:42:33.028Z,3.97
2022-10-07T15:45:36.974Z,3.72
2022-10-07T15:48:40.602Z,2.45
2022-10-07T15:51:47.132Z,3.05
2022-10-07T15:54:51.599Z,3.20
2022-10-07T15:57:55.550Z,3.83
2022-10-07T16:01:01.037Z,3.50
2022-10-07T16:04:06.338Z,3.08
2022-10-07T16:07:12.531Z,3.30
2022-10-07T16:10:16.771Z,4.70
2022-10-07T16:13:20.389Z,4.63
2022-10-07T16:16:26.992Z,4.47
2022-10-07T16:19:30.897Z,4.93
2022-10-07T16:22:34.979Z,4.82
2022-10-07T16:25:38.606Z,4.67
2022-10-07T16:29:06.625Z,4.73
2022-10-07T16:32:11.604Z,4.32
2022-10-07T16:35:15.588Z,3.72
2022-10-07T16:38:21.247Z,4.28
2022-10-07T16:41:25.243Z,3.63
2022-10-07T16:44:30.151Z,4.07
2022-10-07T16:47:34.436Z,4.18
2022-10-07T16:50:38.176Z,4.35
2022-10-07T16:53:42.621Z,4.68
2022-10-07T16:56:52.871Z,6.37
2022-10-07T16:59:58.454Z,5.95
2022-10-07T17:03:01.613Z,5.13
2022-10-07T17:06:06.173Z,5.93
2022-10-07T17:09:09.735Z,6.88
2022-10-07T17:12:13.583Z,6.63
2022-10-07T17:15:17.380Z,7.27
2022-10-07T17:18:21.772Z,8.13
2022-10-07T17:21:25.383Z,8.90
2022-10-07T17:24:28.885Z,6.53
2022-10-07T17:27:32.412Z,4.13
2022-10-07T17:30:36.049Z,2.13
2022-10-07T17:33:41.476Z,2.40
2022-10-07T17:36:45.476Z,1.73
2022-10-07T17:39:48.769Z,2.50
2022-10-07T17:42:52.569Z,1.53
2022-10-07T17:45:56.354Z,1.33
2022-10-07T17:49:02.978Z,1.60
2022-10-07T17:52:06.358Z,2.25
2022-10-07T17:55:10.787Z,2.10
2022-10-07T17:58:14.414Z,2.10
2022-10-07T18:01:24.871Z,2.17
2022-10-07T18:04:28.501Z,1.90
2022-10-07T18:07:32.155Z,2.00
2022-10-07T18:10:37.916Z,2.00
2022-10-07T18:14:00.137Z,2.37
2022-10-07T18:17:05.060Z,1.93
2022-10-07T18:20:14.829Z,3.00
2022-10-07T18:23:19.127Z,3.40
2022-10-07T18:26:23.284Z,3.50
2022-10-07T18:29:34.746Z,3.47
2022-10-07T18:32:38.668Z,4.88
2022-10-07T18:35:42.410Z,4.38
2022-10-07T18:38:46.535Z,5.65
2022-10-07T18:41:50.202Z,5.60
2022-10-07T18:44:54.446Z,5.80
2022-10-07T18:47:58.175Z,6.00
2022-10-07T18:51:03.453Z,6.30
2022-10-07T18:54:07.228Z,5.05
2022-10-07T18:57:11.158Z,4.82
2022-10-07T19:00:15.112Z,4.47
2022-10-07T19:03:19.106Z,4.93
2022-10-07T19:06:24.745Z,4.97
2022-10-07T19:09:28.808Z,5.60
2022-10-07T19:12:50.667Z,5.57
2022-10-07T19:15:54.860Z,6.23
2022-10-07T19:18:59.755Z,8.00
2022-10-07T19:22:04.769Z,6.05
2022-10-07T19:25:27.940Z,7.10
2022-10-07T19:28:32.165Z,8.30
2022-10-07T19:31:40.743Z,8.30
2022-10-07T19:34:44.935Z,8.88
2022-10-07T19:37:48.727Z,7.72
2022-10-07T19:40:57.120Z,7.10
2022-10-07T19:44:01.567Z,8.60
2022-10-07T19:47:05.644Z,5.97
2022-10-07T19:50:09.336Z,6.82
2022-10-07T19:53:13.098Z,7.60
2022-10-07T19:56:33.129Z,6.97
2022-10-07T19:59:37.362Z,7.38
2022-10-07T20:02:41.097Z,7.53
2022-10-07T20:05:45.340Z,8.47
2022-10-07T20:08:48.978Z,8.10
2022-10-07T20:11:51.915Z,8.27
2022-10-07T20:14:55.753Z,7.18
2022-10-07T20:17:59.816Z,7.17
2022-10-07T20:21:11.188Z,7.70
2022-10-07T20:24:17.329Z,6.93
2022-10-07T20:27:20.625Z,8.38
2022-10-07T20:30:24.650Z,8.63
2022-10-07T20:33:27.914Z,8.93
2022-10-07T20:36:33.935Z,8.32
2022-10-07T20:39:55.124Z,8.32
2022-10-07T20:43:01.364Z,7.50
2022-10-07T20:46:04.332Z,7.97
2022-10-07T20:49:32.544Z,8.47
2022-10-07T20:52:36.564Z,9.00
2022-10-07T20:55:40.549Z,7.75
2022-10-07T20:58:47.527Z,6.97
2022-10-07T21:01:51.363Z,7.00
2022-10-07T21:04:55.292Z,5.83
2022-10-07T21:07:58.690Z,2.70
2022-10-07T21:11:03.045Z,3.90
2022-10-07T21:14:07.168Z,3.30
2022-10-07T21:17:10.498Z,7.97
2022-10-07T21:20:14.639Z,7.93
2022-10-07T21:23:18.043Z,7.00
2022-10-07T21:26:22.782Z,4.40
2022-10-07T21:29:26.563Z,4.03
2022-10-07T21:32:31.229Z,7.30
2022-10-07T21:35:34.638Z,5.97
2022-10-07T21:38:38.666Z,5.78
2022-10-07T21:41:42.450Z,6.63
2022-10-07T21:44:48.101Z,6.78
2022-10-07T21:47:51.149Z,9.43
2022-10-07T21:50:58.545Z,9.93
2022-10-07T21:54:02.564Z,8.82
2022-10-07T21:57:06.275Z,8.82
2022-10-07T22:00:12.867Z,8.50
2022-10-07T22:03:16.574Z,9.10
2022-10-07T22:06:20.404Z,8.13
2022-10-07T22:09:23.758Z,8.32
2022-10-07T22:12:27.895Z,7.50
2022-10-07T22:15:31.153Z,8.32
2022-10-07T22:18:36.686Z,7.45
2022-10-07T22:21:42.423Z,5.63
2022-10-07T22:24:45.407Z,2.92
2022-10-07T22:27:50.252Z,6.35
2022-10-07T22:30:54.058Z,9.05
2022-10-07T22:34:00.596Z,8.55
2022-10-07T22:37:05.023Z,8.60
2022-10-07T22:40:09.266Z,8.73
2022-10-07T22:43:13.174Z,10.40
2022-10-07T22:46:20.224Z,9.48
2022-10-07T22:49:29.324Z,10.77
2022-10-07T22:52:33.563Z,10.87
2022-10-07T22:55:37.754Z,12.70
2022-10-07T22:58:43.767Z,12.35
2022-10-07T23:01:47.155Z,13.00
2022-10-07T23:04:51.589Z,14.02
2022-10-07T23:07:55.613Z,13.90
2022-10-07T23:11:00.225Z,13.57
2022-10-07T23:14:04.044Z,14.25
2022-10-07T23:17:07.744Z,12.20
2022-10-07T23:20:11.315Z,12.25
2022-10-07T23:23:15.394Z,9.53
2022-10-07T23:26:24.798Z,8.13
2022-10-07T23:29:29.046Z,6.90
2022-10-07T23:32:32.071Z,8.45
2022-10-07T23:35:35.903Z,6.32
2022-10-07T23:38:40.757Z,10.10
2022-10-07T23:41:44.944Z,12.50
2022-10-07T23:44:48.728Z,13.32
2022-10-07T23:47:52.427Z,12.75
2022-10-07T23:50:56.101Z,11.95
2022-10-07T23:54:01.663Z,11.87
2022-10-07T23:57:05.245Z,14.30
